CheckWX is a tool to help pilots better visualize weather data.  It is not intended as a substitute for an official pre-flight weather briefing.

13:42:53 UTC

KBGD METAR
Hutchinson County Airport
Borger, Texas, USA
Current

52 mins ago

KBGD 201251Z AUTO 20008KT 10SM CLR 27/13 A2991 RMK AO2 SLP071 T02670128
Observed
Jul-20 @ 12:51 UTC
Wind
  • 200° at 8 KTS
Visibility
10 SM
Flight Rules
VFR
Cloud Levels
  • Clear skies
Temperature
27°C / 81°F
Dewpoint
13°C / 55°F
Heat Index
27°C / 81°F
Humidity
42%
Altimeter
29.91" Hg
Pressure
1012.92 hPa
Previous

2 hours ago

KBGD 201151Z AUTO 19011G16KT 10SM CLR 27/12 A2989 RMK AO2 SLP066 T02670122 10306 20267 53004
Observed
Jul-20 @ 11:51 UTC
Wind
  • 190° at 11 KTS
  • Gusting to 16 KTS
Visibility
10 SM
Flight Rules
VFR
Cloud Levels
  • Clear skies
Temperature
27°C / 81°F
Dewpoint
12°C / 54°F
Humidity
39%
Altimeter
29.89" Hg
Pressure
1012.22 hPa
Previous

3 hours ago

KBGD 201051Z AUTO 20011G19KT 10SM CLR 28/12 A2989 RMK AO2 SLP063 T02780122
Observed
Jul-20 @ 10:51 UTC
Wind
  • 200° at 11 KTS
  • Gusting to 19 KTS
Visibility
10 SM
Flight Rules
VFR
Cloud Levels
  • Clear skies
Temperature
28°C / 82°F
Dewpoint
12°C / 54°F
Humidity
37%
Altimeter
29.89" Hg
Pressure
1012.22 hPa